sensor_id;sensor_type;location;lat;lon;timestamp;P1;durP1;ratioP1;P2;durP2;ratioP2
23181;SDS011;11759;51.282;6.642;2023-06-22T00:01:19;622.45;;;309.33;;
23181;SDS011;11759;51.282;6.642;2023-06-22T00:03:46;631.75;;;308.73;;
23181;SDS011;11759;51.282;6.642;2023-06-22T00:06:13;612.45;;;294.42;;
23181;SDS011;11759;51.282;6.642;2023-06-22T00:08:40;630.50;;;303.98;;
23181;SDS011;11759;51.282;6.642;2023-06-22T00:11:07;663.75;;;330.05;;
23181;SDS011;11759;51.282;6.642;2023-06-22T00:13:34;615.30;;;291.17;;
23181;SDS011;11759;51.282;6.642;2023-06-22T00:16:00;629.72;;;305.70;;
23181;SDS011;11759;51.282;6.642;2023-06-22T00:18:27;617.95;;;299.75;;
23181;SDS011;11759;51.282;6.642;2023-06-22T00:20:55;617.42;;;287.70;;
23181;SDS011;11759;51.282;6.642;2023-06-22T00:23:25;602.53;;;274.00;;
23181;SDS011;11759;51.282;6.642;2023-06-22T00:25:52;616.83;;;301.00;;
23181;SDS011;11759;51.282;6.642;2023-06-22T00:28:19;630.38;;;300.30;;
23181;SDS011;11759;51.282;6.642;2023-06-22T00:30:46;614.22;;;288.70;;
23181;SDS011;11759;51.282;6.642;2023-06-22T00:33:15;624.60;;;295.63;;
23181;SDS011;11759;51.282;6.642;2023-06-22T00:35:43;609.67;;;282.83;;
23181;SDS011;11759;51.282;6.642;2023-06-22T00:38:10;627.20;;;292.35;;
23181;SDS011;11759;51.282;6.642;2023-06-22T00:40:37;611.60;;;282.08;;
23181;SDS011;11759;51.282;6.642;2023-06-22T00:43:04;655.70;;;319.35;;
23181;SDS011;11759;51.282;6.642;2023-06-22T00:45:31;610.40;;;282.65;;
23181;SDS011;11759;51.282;6.642;2023-06-22T00:47:58;621.53;;;293.45;;
23181;SDS011;11759;51.282;6.642;2023-06-22T00:50:26;608.55;;;277.55;;
23181;SDS011;11759;51.282;6.642;2023-06-22T00:52:57;611.50;;;271.50;;
23181;SDS011;11759;51.282;6.642;2023-06-22T00:55:26;609.92;;;273.52;;
23181;SDS011;11759;51.282;6.642;2023-06-22T00:57:54;617.63;;;292.40;;
23181;SDS011;11759;51.282;6.642;2023-06-22T01:00:24;605.92;;;273.42;;
23181;SDS011;11759;51.282;6.642;2023-06-22T01:02:52;603.47;;;273.95;;
23181;SDS011;11759;51.282;6.642;2023-06-22T01:05:20;652.25;;;299.65;;
23181;SDS011;11759;51.282;6.642;2023-06-22T01:16:09;616.63;;;270.90;;
23181;SDS011;11759;51.282;6.642;2023-06-22T01:18:39;602.88;;;268.50;;
23181;SDS011;11759;51.282;6.642;2023-06-22T01:21:08;693.78;;;340.83;;
23181;SDS011;11759;51.282;6.642;2023-06-22T01:26:12;603.53;;;259.40;;
23181;SDS011;11759;51.282;6.642;2023-06-22T01:28:50;610.65;;;269.95;;
23181;SDS011;11759;51.282;6.642;2023-06-22T01:31:24;600.80;;;258.48;;
23181;SDS011;11759;51.282;6.642;2023-06-22T01:33:55;601.53;;;258.30;;
23181;SDS011;11759;51.282;6.642;2023-06-22T01:36:25;612.35;;;263.08;;
23181;SDS011;11759;51.282;6.642;2023-06-22T01:38:53;603.88;;;260.48;;
23181;SDS011;11759;51.282;6.642;2023-06-22T01:41:20;600.20;;;251.10;;
23181;SDS011;11759;51.282;6.642;2023-06-22T01:43:48;630.20;;;293.15;;
23181;SDS011;11759;51.282;6.642;2023-06-22T01:46:15;598.78;;;258.15;;
23181;SDS011;11759;51.282;6.642;2023-06-22T01:48:41;618.22;;;274.50;;
23181;SDS011;11759;51.282;6.642;2023-06-22T01:51:08;600.72;;;261.48;;
23181;SDS011;11759;51.282;6.642;2023-06-22T01:53:41;615.10;;;269.15;;
23181;SDS011;11759;51.282;6.642;2023-06-22T01:56:08;604.00;;;266.58;;
23181;SDS011;11759;51.282;6.642;2023-06-22T01:58:36;662.08;;;316.45;;
23181;SDS011;11759;51.282;6.642;2023-06-22T02:01:20;600.15;;;254.75;;
23181;SDS011;11759;51.282;6.642;2023-06-22T02:04:06;604.47;;;262.35;;
23181;SDS011;11759;51.282;6.642;2023-06-22T02:06:38;620.60;;;269.20;;
23181;SDS011;11759;51.282;6.642;2023-06-22T02:09:09;598.35;;;250.77;;
23181;SDS011;11759;51.282;6.642;2023-06-22T02:11:39;627.20;;;284.13;;
23181;SDS011;11759;51.282;6.642;2023-06-22T02:14:08;597.15;;;244.63;;
23181;SDS011;11759;51.282;6.642;2023-06-22T02:16:35;624.78;;;280.88;;
23181;SDS011;11759;51.282;6.642;2023-06-22T02:19:02;604.15;;;267.70;;
23181;SDS011;11759;51.282;6.642;2023-06-22T02:21:34;603.55;;;259.13;;
23181;SDS011;11759;51.282;6.642;2023-06-22T02:24:00;670.25;;;321.85;;
23181;SDS011;11759;51.282;6.642;2023-06-22T02:26:29;606.78;;;270.58;;
23181;SDS011;11759;51.282;6.642;2023-06-22T02:28:56;608.53;;;265.98;;
23181;SDS011;11759;51.282;6.642;2023-06-22T02:31:23;602.67;;;264.27;;
23181;SDS011;11759;51.282;6.642;2023-06-22T02:34:00;615.97;;;272.58;;
23181;SDS011;11759;51.282;6.642;2023-06-22T02:36:26;608.30;;;276.63;;
23181;SDS011;11759;51.282;6.642;2023-06-22T02:38:59;667.72;;;315.90;;
23181;SDS011;11759;51.282;6.642;2023-06-22T02:41:29;603.20;;;254.70;;
23181;SDS011;11759;51.282;6.642;2023-06-22T02:43:56;620.25;;;272.88;;
23181;SDS011;11759;51.282;6.642;2023-06-22T02:46:23;653.88;;;309.05;;
23181;SDS011;11759;51.282;6.642;2023-06-22T02:48:50;600.65;;;253.95;;
23181;SDS011;11759;51.282;6.642;2023-06-22T02:51:17;620.72;;;263.48;;
23181;SDS011;11759;51.282;6.642;2023-06-22T02:53:44;603.85;;;259.90;;
23181;SDS011;11759;51.282;6.642;2023-06-22T02:56:13;622.45;;;270.50;;
23181;SDS011;11759;51.282;6.642;2023-06-22T02:58:40;608.22;;;261.48;;
23181;SDS011;11759;51.282;6.642;2023-06-22T03:01:10;633.05;;;288.35;;
23181;SDS011;11759;51.282;6.642;2023-06-22T03:03:41;601.47;;;248.35;;
23181;SDS011;11759;51.282;6.642;2023-06-22T03:06:08;615.10;;;267.20;;
23181;SDS011;11759;51.282;6.642;2023-06-22T03:08:40;596.70;;;252.50;;
23181;SDS011;11759;51.282;6.642;2023-06-22T03:11:09;638.28;;;289.35;;
23181;SDS011;11759;51.282;6.642;2023-06-22T03:13:35;603.42;;;259.85;;
23181;SDS011;11759;51.282;6.642;2023-06-22T03:16:02;614.85;;;257.30;;
23181;SDS011;11759;51.282;6.642;2023-06-22T03:18:29;602.00;;;251.95;;
23181;SDS011;11759;51.282;6.642;2023-06-22T03:20:56;664.40;;;303.15;;
23181;SDS011;11759;51.282;6.642;2023-06-22T03:23:23;606.42;;;258.98;;
23181;SDS011;11759;51.282;6.642;2023-06-22T03:25:50;646.33;;;300.25;;
23181;SDS011;11759;51.282;6.642;2023-06-22T03:28:17;596.85;;;243.98;;
23181;SDS011;11759;51.282;6.642;2023-06-22T03:30:44;602.13;;;248.13;;
23181;SDS011;11759;51.282;6.642;2023-06-22T03:33:11;627.80;;;268.95;;
23181;SDS011;11759;51.282;6.642;2023-06-22T03:35:37;599.75;;;243.10;;
23181;SDS011;11759;51.282;6.642;2023-06-22T03:38:04;625.45;;;272.98;;
23181;SDS011;11759;51.282;6.642;2023-06-22T03:40:31;603.10;;;249.27;;
23181;SDS011;11759;51.282;6.642;2023-06-22T03:42:59;623.97;;;268.65;;
23181;SDS011;11759;51.282;6.642;2023-06-22T03:45:28;605.15;;;254.43;;
23181;SDS011;11759;51.282;6.642;2023-06-22T03:47:55;623.22;;;270.52;;
23181;SDS011;11759;51.282;6.642;2023-06-22T03:50:22;615.30;;;255.25;;
23181;SDS011;11759;51.282;6.642;2023-06-22T03:52:49;601.38;;;257.20;;
23181;SDS011;11759;51.282;6.642;2023-06-22T03:55:19;659.88;;;296.55;;
23181;SDS011;11759;51.282;6.642;2023-06-22T03:57:46;599.25;;;239.80;;
23181;SDS011;11759;51.282;6.642;2023-06-22T04:00:13;648.58;;;291.38;;
23181;SDS011;11759;51.282;6.642;2023-06-22T04:02:44;612.50;;;261.55;;
23181;SDS011;11759;51.282;6.642;2023-06-22T04:05:11;648.17;;;289.65;;
23181;SDS011;11759;51.282;6.642;2023-06-22T04:07:38;605.42;;;256.88;;
23181;SDS011;11759;51.282;6.642;2023-06-22T04:10:06;638.92;;;278.05;;
23181;SDS011;11759;51.282;6.642;2023-06-22T04:12:35;612.50;;;265.55;;
23181;SDS011;11759;51.282;6.642;2023-06-22T04:15:02;615.20;;;254.88;;
23181;SDS011;11759;51.282;6.642;2023-06-22T04:17:30;614.90;;;265.15;;
23181;SDS011;11759;51.282;6.642;2023-06-22T04:19:57;608.28;;;260.48;;
23181;SDS011;11759;51.282;6.642;2023-06-22T04:22:24;621.95;;;268.67;;
23181;SDS011;11759;51.282;6.642;2023-06-22T04:24:50;603.88;;;260.25;;
23181;SDS011;11759;51.282;6.642;2023-06-22T04:27:18;674.22;;;312.77;;
23181;SDS011;11759;51.282;6.642;2023-06-22T04:29:46;630.17;;;278.55;;
23181;SDS011;11759;51.282;6.642;2023-06-22T04:32:15;605.95;;;253.88;;
23181;SDS011;11759;51.282;6.642;2023-06-22T04:34:42;613.50;;;261.80;;
23181;SDS011;11759;51.282;6.642;2023-06-22T04:37:09;608.63;;;246.25;;
23181;SDS011;11759;51.282;6.642;2023-06-22T04:39:42;607.38;;;246.80;;
23181;SDS011;11759;51.282;6.642;2023-06-22T04:42:09;608.55;;;250.75;;
23181;SDS011;11759;51.282;6.642;2023-06-22T04:44:36;609.55;;;254.75;;
23181;SDS011;11759;51.282;6.642;2023-06-22T04:47:04;622.22;;;260.70;;
23181;SDS011;11759;51.282;6.642;2023-06-22T04:49:35;607.55;;;252.07;;
23181;SDS011;11759;51.282;6.642;2023-06-22T04:52:07;618.88;;;261.92;;
23181;SDS011;11759;51.282;6.642;2023-06-22T04:54:36;609.88;;;255.18;;
23181;SDS011;11759;51.282;6.642;2023-06-22T04:57:07;646.83;;;287.38;;
23181;SDS011;11759;51.282;6.642;2023-06-22T04:59:37;613.33;;;260.52;;
23181;SDS011;11759;51.282;6.642;2023-06-22T05:02:05;624.33;;;268.92;;
23181;SDS011;11759;51.282;6.642;2023-06-22T05:04:32;613.42;;;257.77;;
23181;SDS011;11759;51.282;6.642;2023-06-22T05:06:59;607.88;;;261.65;;
23181;SDS011;11759;51.282;6.642;2023-06-22T05:09:26;629.42;;;278.10;;
23181;SDS011;11759;51.282;6.642;2023-06-22T05:11:53;613.63;;;259.33;;
23181;SDS011;11759;51.282;6.642;2023-06-22T05:14:20;661.38;;;303.83;;
23181;SDS011;11759;51.282;6.642;2023-06-22T05:16:48;609.78;;;265.95;;
23181;SDS011;11759;51.282;6.642;2023-06-22T05:19:15;612.03;;;264.75;;
23181;SDS011;11759;51.282;6.642;2023-06-22T05:21:41;617.25;;;270.52;;
23181;SDS011;11759;51.282;6.642;2023-06-22T05:24:08;604.42;;;254.18;;
23181;SDS011;11759;51.282;6.642;2023-06-22T05:26:35;622.85;;;268.00;;
23181;SDS011;11759;51.282;6.642;2023-06-22T05:29:02;600.10;;;241.63;;
23181;SDS011;11759;51.282;6.642;2023-06-22T05:31:29;621.70;;;263.55;;
23181;SDS011;11759;51.282;6.642;2023-06-22T05:33:56;606.70;;;255.35;;
23181;SDS011;11759;51.282;6.642;2023-06-22T05:36:23;647.22;;;286.98;;
23181;SDS011;11759;51.282;6.642;2023-06-22T05:38:52;613.33;;;261.92;;
23181;SDS011;11759;51.282;6.642;2023-06-22T05:41:19;617.17;;;264.60;;
23181;SDS011;11759;51.282;6.642;2023-06-22T05:43:46;611.85;;;264.63;;
23181;SDS011;11759;51.282;6.642;2023-06-22T05:46:13;606.85;;;266.15;;
23181;SDS011;11759;51.282;6.642;2023-06-22T05:48:39;604.75;;;253.15;;
23181;SDS011;11759;51.282;6.642;2023-06-22T05:51:06;621.03;;;269.30;;
23181;SDS011;11759;51.282;6.642;2023-06-22T05:53:33;603.97;;;251.45;;
23181;SDS011;11759;51.282;6.642;2023-06-22T05:55:59;659.10;;;300.00;;
23181;SDS011;11759;51.282;6.642;2023-06-22T05:58:26;613.03;;;262.08;;
23181;SDS011;11759;51.282;6.642;2023-06-22T06:00:53;665.90;;;308.80;;
23181;SDS011;11759;51.282;6.642;2023-06-22T06:03:21;605.88;;;262.08;;
23181;SDS011;11759;51.282;6.642;2023-06-22T06:05:47;609.53;;;272.95;;
23181;SDS011;11759;51.282;6.642;2023-06-22T06:08:14;607.40;;;259.50;;
23181;SDS011;11759;51.282;6.642;2023-06-22T06:10:41;614.55;;;266.85;;
23181;SDS011;11759;51.282;6.642;2023-06-22T06:13:08;620.03;;;279.77;;
23181;SDS011;11759;51.282;6.642;2023-06-22T06:15:35;610.15;;;268.67;;
23181;SDS011;11759;51.282;6.642;2023-06-22T06:18:02;620.03;;;268.70;;
23181;SDS011;11759;51.282;6.642;2023-06-22T06:20:32;631.20;;;285.38;;
23181;SDS011;11759;51.282;6.642;2023-06-22T06:22:59;604.00;;;269.90;;
23181;SDS011;11759;51.282;6.642;2023-06-22T06:25:26;624.45;;;277.20;;
23181;SDS011;11759;51.282;6.642;2023-06-22T06:27:53;603.03;;;258.33;;
23181;SDS011;11759;51.282;6.642;2023-06-22T06:30:21;640.33;;;281.67;;
23181;SDS011;11759;51.282;6.642;2023-06-22T06:32:49;601.65;;;259.42;;
23181;SDS011;11759;51.282;6.642;2023-06-22T06:35:16;643.35;;;297.40;;
23181;SDS011;11759;51.282;6.642;2023-06-22T06:37:44;603.78;;;271.60;;
23181;SDS011;11759;51.282;6.642;2023-06-22T06:40:12;647.65;;;305.27;;
23181;SDS011;11759;51.282;6.642;2023-06-22T06:42:40;604.20;;;266.63;;
23181;SDS011;11759;51.282;6.642;2023-06-22T06:45:20;642.38;;;299.77;;
23181;SDS011;11759;51.282;6.642;2023-06-22T06:47:53;601.17;;;268.70;;
23181;SDS011;11759;51.282;6.642;2023-06-22T06:50:20;642.10;;;287.42;;
23181;SDS011;11759;51.282;6.642;2023-06-22T06:52:47;625.45;;;288.45;;
23181;SDS011;11759;51.282;6.642;2023-06-22T06:55:14;628.40;;;289.40;;
23181;SDS011;11759;51.282;6.642;2023-06-22T06:57:41;667.47;;;322.38;;
23181;SDS011;11759;51.282;6.642;2023-06-22T07:00:09;634.33;;;296.85;;
23181;SDS011;11759;51.282;6.642;2023-06-22T07:02:42;710.95;;;354.10;;
23181;SDS011;11759;51.282;6.642;2023-06-22T07:05:10;620.90;;;284.23;;
23181;SDS011;11759;51.282;6.642;2023-06-22T07:07:38;633.35;;;304.67;;
23181;SDS011;11759;51.282;6.642;2023-06-22T07:10:05;620.05;;;296.45;;
23181;SDS011;11759;51.282;6.642;2023-06-22T07:12:32;643.95;;;312.65;;
23181;SDS011;11759;51.282;6.642;2023-06-22T07:15:03;611.75;;;282.90;;
23181;SDS011;11759;51.282;6.642;2023-06-22T07:17:31;662.47;;;324.70;;
23181;SDS011;11759;51.282;6.642;2023-06-22T07:20:00;608.08;;;280.98;;
23181;SDS011;11759;51.282;6.642;2023-06-22T07:22:30;621.47;;;289.73;;
23181;SDS011;11759;51.282;6.642;2023-06-22T07:24:57;606.25;;;267.80;;
23181;SDS011;11759;51.282;6.642;2023-06-22T07:27:24;608.70;;;267.40;;
23181;SDS011;11759;51.282;6.642;2023-06-22T07:29:51;627.67;;;286.77;;
23181;SDS011;11759;51.282;6.642;2023-06-22T07:32:18;605.78;;;261.52;;
23181;SDS011;11759;51.282;6.642;2023-06-22T07:34:44;627.83;;;281.90;;
23181;SDS011;11759;51.282;6.642;2023-06-22T07:37:11;606.50;;;263.20;;
23181;SDS011;11759;51.282;6.642;2023-06-22T07:39:39;674.40;;;319.17;;
23181;SDS011;11759;51.282;6.642;2023-06-22T07:42:06;604.08;;;263.75;;
23181;SDS011;11759;51.282;6.642;2023-06-22T07:44:33;614.63;;;266.83;;
23181;SDS011;11759;51.282;6.642;2023-06-22T07:47:00;606.60;;;264.20;;
23181;SDS011;11759;51.282;6.642;2023-06-22T07:49:27;639.20;;;289.02;;
23181;SDS011;11759;51.282;6.642;2023-06-22T07:51:54;612.15;;;261.50;;
23181;SDS011;11759;51.282;6.642;2023-06-22T07:54:21;609.95;;;273.67;;
23181;SDS011;11759;51.282;6.642;2023-06-22T07:56:48;616.45;;;261.75;;
23181;SDS011;11759;51.282;6.642;2023-06-22T07:59:15;603.53;;;260.50;;
23181;SDS011;11759;51.282;6.642;2023-06-22T08:01:42;657.47;;;295.70;;
23181;SDS011;11759;51.282;6.642;2023-06-22T08:04:09;608.67;;;268.85;;
23181;SDS011;11759;51.282;6.642;2023-06-22T08:06:36;626.17;;;281.65;;
23181;SDS011;11759;51.282;6.642;2023-06-22T08:09:02;606.75;;;264.45;;
23181;SDS011;11759;51.282;6.642;2023-06-22T08:11:29;620.65;;;286.88;;
23181;SDS011;11759;51.282;6.642;2023-06-22T08:13:56;612.30;;;280.33;;
23181;SDS011;11759;51.282;6.642;2023-06-22T08:16:25;624.90;;;312.98;;
23181;SDS011;11759;51.282;6.642;2023-06-22T08:18:51;634.90;;;333.45;;
23181;SDS011;11759;51.282;6.642;2023-06-22T08:21:18;622.33;;;322.95;;
23181;SDS011;11759;51.282;6.642;2023-06-22T08:23:47;635.75;;;331.00;;
23181;SDS011;11759;51.282;6.642;2023-06-22T08:26:15;620.80;;;319.67;;
23181;SDS011;11759;51.282;6.642;2023-06-22T08:28:42;639.40;;;327.35;;
23181;SDS011;11759;51.282;6.642;2023-06-22T08:31:08;621.85;;;314.30;;
23181;SDS011;11759;51.282;6.642;2023-06-22T08:33:35;668.63;;;356.40;;
23181;SDS011;11759;51.282;6.642;2023-06-22T08:36:14;623.42;;;319.70;;
23181;SDS011;11759;51.282;6.642;2023-06-22T08:38:42;635.13;;;323.05;;
23181;SDS011;11759;51.282;6.642;2023-06-22T08:41:09;625.35;;;326.52;;
23181;SDS011;11759;51.282;6.642;2023-06-22T08:43:36;648.58;;;374.52;;
23181;SDS011;11759;51.282;6.642;2023-06-22T08:46:03;637.28;;;369.35;;
23181;SDS011;11759;51.282;6.642;2023-06-22T08:48:29;643.80;;;386.05;;
23181;SDS011;11759;51.282;6.642;2023-06-22T08:50:56;636.90;;;393.30;;
23181;SDS011;11759;51.282;6.642;2023-06-22T08:53:23;644.45;;;412.92;;
23181;SDS011;11759;51.282;6.642;2023-06-22T08:55:50;639.92;;;421.42;;
23181;SDS011;11759;51.282;6.642;2023-06-22T08:58:17;669.88;;;459.33;;
23181;SDS011;11759;51.282;6.642;2023-06-22T09:00:44;649.40;;;435.83;;
23181;SDS011;11759;51.282;6.642;2023-06-22T09:03:11;645.03;;;420.40;;
23181;SDS011;11759;51.282;6.642;2023-06-22T09:05:38;656.20;;;422.88;;
23181;SDS011;11759;51.282;6.642;2023-06-22T09:08:05;639.22;;;394.10;;
23181;SDS011;11759;51.282;6.642;2023-06-22T09:10:32;634.17;;;388.17;;
23181;SDS011;11759;51.282;6.642;2023-06-22T09:12:59;652.90;;;409.73;;
23181;SDS011;11759;51.282;6.642;2023-06-22T09:15:26;638.35;;;404.08;;
23181;SDS011;11759;51.282;6.642;2023-06-22T09:17:53;644.55;;;398.67;;
23181;SDS011;11759;51.282;6.642;2023-06-22T09:20:20;637.50;;;396.23;;
23181;SDS011;11759;51.282;6.642;2023-06-22T09:22:47;643.78;;;421.60;;
23181;SDS011;11759;51.282;6.642;2023-06-22T09:25:14;663.30;;;436.05;;
23181;SDS011;11759;51.282;6.642;2023-06-22T09:27:41;637.85;;;412.05;;
23181;SDS011;11759;51.282;6.642;2023-06-22T09:30:08;683.78;;;463.23;;
23181;SDS011;11759;51.282;6.642;2023-06-22T09:32:35;646.95;;;428.70;;
23181;SDS011;11759;51.282;6.642;2023-06-22T09:35:03;645.22;;;438.08;;
23181;SDS011;11759;51.282;6.642;2023-06-22T09:37:32;645.72;;;441.05;;
23181;SDS011;11759;51.282;6.642;2023-06-22T09:39:59;639.13;;;428.73;;
23181;SDS011;11759;51.282;6.642;2023-06-22T09:42:26;679.15;;;472.75;;
23181;SDS011;11759;51.282;6.642;2023-06-22T09:44:53;644.55;;;440.65;;
23181;SDS011;11759;51.282;6.642;2023-06-22T09:47:19;661.97;;;460.58;;
23181;SDS011;11759;51.282;6.642;2023-06-22T09:49:46;648.25;;;449.63;;
23181;SDS011;11759;51.282;6.642;2023-06-22T09:52:14;663.17;;;458.95;;
23181;SDS011;11759;51.282;6.642;2023-06-22T09:54:42;646.05;;;451.40;;
23181;SDS011;11759;51.282;6.642;2023-06-22T09:57:09;670.45;;;466.83;;
23181;SDS011;11759;51.282;6.642;2023-06-22T09:59:36;659.35;;;479.90;;
23181;SDS011;11759;51.282;6.642;2023-06-22T10:02:03;659.10;;;475.13;;
23181;SDS011;11759;51.282;6.642;2023-06-22T10:04:30;655.35;;;484.40;;
23181;SDS011;11759;51.282;6.642;2023-06-22T10:06:57;704.20;;;513.83;;
23181;SDS011;11759;51.282;6.642;2023-06-22T10:09:24;651.22;;;471.70;;
23181;SDS011;11759;51.282;6.642;2023-06-22T10:11:51;671.95;;;469.00;;
23181;SDS011;11759;51.282;6.642;2023-06-22T10:14:17;653.75;;;463.67;;
23181;SDS011;11759;51.282;6.642;2023-06-22T10:16:44;664.88;;;495.45;;
23181;SDS011;11759;51.282;6.642;2023-06-22T10:19:11;650.70;;;479.02;;
23181;SDS011;11759;51.282;6.642;2023-06-22T10:21:38;651.97;;;472.27;;
23181;SDS011;11759;51.282;6.642;2023-06-22T10:24:04;662.75;;;470.35;;
23181;SDS011;11759;51.282;6.642;2023-06-22T10:26:35;648.43;;;446.03;;
23181;SDS011;11759;51.282;6.642;2023-06-22T10:29:03;655.55;;;452.52;;
23181;SDS011;11759;51.282;6.642;2023-06-22T10:31:41;663.92;;;448.42;;
23181;SDS011;11759;51.282;6.642;2023-06-22T10:34:08;647.50;;;431.77;;
23181;SDS011;11759;51.282;6.642;2023-06-22T10:36:35;643.55;;;424.17;;
23181;SDS011;11759;51.282;6.642;2023-06-22T10:39:02;674.20;;;446.80;;
23181;SDS011;11759;51.282;6.642;2023-06-22T10:41:29;639.75;;;419.25;;
23181;SDS011;11759;51.282;6.642;2023-06-22T10:43:57;657.53;;;428.25;;
23181;SDS011;11759;51.282;6.642;2023-06-22T10:46:24;641.42;;;406.15;;
23181;SDS011;11759;51.282;6.642;2023-06-22T10:48:52;655.65;;;405.15;;
23181;SDS011;11759;51.282;6.642;2023-06-22T10:51:21;634.42;;;397.35;;
23181;SDS011;11759;51.282;6.642;2023-06-22T10:53:47;650.42;;;403.58;;
23181;SDS011;11759;51.282;6.642;2023-06-22T10:56:14;632.50;;;375.77;;
23181;SDS011;11759;51.282;6.642;2023-06-22T10:58:41;649.17;;;388.48;;
23181;SDS011;11759;51.282;6.642;2023-06-22T11:01:08;630.33;;;356.67;;
23181;SDS011;11759;51.282;6.642;2023-06-22T11:03:51;650.35;;;363.85;;
23181;SDS011;11759;51.282;6.642;2023-06-22T11:06:18;632.20;;;353.40;;
23181;SDS011;11759;51.282;6.642;2023-06-22T11:08:45;638.00;;;348.85;;
23181;SDS011;11759;51.282;6.642;2023-06-22T11:11:32;627.75;;;336.27;;
23181;SDS011;11759;51.282;6.642;2023-06-22T11:13:59;697.60;;;396.17;;
23181;SDS011;11759;51.282;6.642;2023-06-22T11:16:26;630.63;;;333.17;;
23181;SDS011;11759;51.282;6.642;2023-06-22T11:18:53;696.33;;;382.48;;
23181;SDS011;11759;51.282;6.642;2023-06-22T11:21:20;630.97;;;330.08;;
23181;SDS011;11759;51.282;6.642;2023-06-22T11:23:47;641.13;;;336.73;;
23181;SDS011;11759;51.282;6.642;2023-06-22T11:26:13;625.90;;;308.67;;
23181;SDS011;11759;51.282;6.642;2023-06-22T11:28:40;628.50;;;298.58;;
23181;SDS011;11759;51.282;6.642;2023-06-22T11:31:07;629.10;;;297.80;;
23181;SDS011;11759;51.282;6.642;2023-06-22T11:33:51;692.25;;;343.75;;
23181;SDS011;11759;51.282;6.642;2023-06-22T11:36:18;624.47;;;283.88;;
23181;SDS011;11759;51.282;6.642;2023-06-22T11:38:45;636.75;;;296.48;;
23181;SDS011;11759;51.282;6.642;2023-06-22T11:41:12;625.15;;;280.65;;
23181;SDS011;11759;51.282;6.642;2023-06-22T11:43:38;635.20;;;293.90;;
23181;SDS011;11759;51.282;6.642;2023-06-22T11:46:05;631.90;;;285.27;;
23181;SDS011;11759;51.282;6.642;2023-06-22T11:48:32;625.92;;;277.23;;
23181;SDS011;11759;51.282;6.642;2023-06-22T11:50:59;648.65;;;294.15;;
23181;SDS011;11759;51.282;6.642;2023-06-22T11:53:26;692.70;;;335.45;;
23181;SDS011;11759;51.282;6.642;2023-06-22T11:55:53;627.15;;;274.02;;
23181;SDS011;11759;51.282;6.642;2023-06-22T11:58:21;636.53;;;283.50;;
23181;SDS011;11759;51.282;6.642;2023-06-22T12:00:49;632.20;;;288.42;;
23181;SDS011;11759;51.282;6.642;2023-06-22T12:03:18;629.80;;;282.40;;
23181;SDS011;11759;51.282;6.642;2023-06-22T12:05:46;644.83;;;291.45;;
23181;SDS011;11759;51.282;6.642;2023-06-22T12:08:13;635.58;;;290.83;;
23181;SDS011;11759;51.282;6.642;2023-06-22T12:10:40;649.97;;;293.77;;
23181;SDS011;11759;51.282;6.642;2023-06-22T12:13:07;642.60;;;295.85;;
23181;SDS011;11759;51.282;6.642;2023-06-22T12:15:33;743.15;;;380.02;;
23181;SDS011;11759;51.282;6.642;2023-06-22T12:18:00;642.20;;;302.10;;
23181;SDS011;11759;51.282;6.642;2023-06-22T12:20:28;689.03;;;331.83;;
23181;SDS011;11759;51.282;6.642;2023-06-22T12:22:55;643.80;;;295.00;;
23181;SDS011;11759;51.282;6.642;2023-06-22T12:25:24;659.50;;;313.63;;
23181;SDS011;11759;51.282;6.642;2023-06-22T12:27:51;644.72;;;313.40;;
23181;SDS011;11759;51.282;6.642;2023-06-22T12:30:18;701.15;;;363.15;;
23181;SDS011;11759;51.282;6.642;2023-06-22T12:32:45;655.63;;;320.17;;
23181;SDS011;11759;51.282;6.642;2023-06-22T12:35:12;683.70;;;339.13;;
23181;SDS011;11759;51.282;6.642;2023-06-22T12:37:41;666.35;;;328.27;;
23181;SDS011;11759;51.282;6.642;2023-06-22T12:40:09;686.33;;;338.58;;
23181;SDS011;11759;51.282;6.642;2023-06-22T12:42:36;657.28;;;321.05;;
23181;SDS011;11759;51.282;6.642;2023-06-22T12:45:04;681.58;;;345.17;;
23181;SDS011;11759;51.282;6.642;2023-06-22T12:47:31;651.85;;;320.88;;
23181;SDS011;11759;51.282;6.642;2023-06-22T12:49:58;697.78;;;356.85;;
23181;SDS011;11759;51.282;6.642;2023-06-22T12:52:25;661.47;;;318.52;;
23181;SDS011;11759;51.282;6.642;2023-06-22T12:54:52;677.45;;;340.88;;
23181;SDS011;11759;51.282;6.642;2023-06-22T12:57:21;649.15;;;310.90;;
23181;SDS011;11759;51.282;6.642;2023-06-22T12:59:48;688.28;;;346.17;;
23181;SDS011;11759;51.282;6.642;2023-06-22T13:02:16;670.45;;;333.88;;
23181;SDS011;11759;51.282;6.642;2023-06-22T13:04:42;655.90;;;325.27;;
23181;SDS011;11759;51.282;6.642;2023-06-22T13:07:09;705.60;;;357.98;;
23181;SDS011;11759;51.282;6.642;2023-06-22T13:09:48;652.65;;;316.50;;
23181;SDS011;11759;51.282;6.642;2023-06-22T13:12:19;666.65;;;341.13;;
23181;SDS011;11759;51.282;6.642;2023-06-22T13:14:46;653.38;;;333.95;;
23181;SDS011;11759;51.282;6.642;2023-06-22T13:17:13;703.83;;;387.02;;
23181;SDS011;11759;51.282;6.642;2023-06-22T13:19:40;669.33;;;359.38;;
23181;SDS011;11759;51.282;6.642;2023-06-22T13:22:25;659.42;;;343.52;;
23181;SDS011;11759;51.282;6.642;2023-06-22T13:24:54;656.40;;;338.80;;
23181;SDS011;11759;51.282;6.642;2023-06-22T13:27:22;664.30;;;352.75;;
23181;SDS011;11759;51.282;6.642;2023-06-22T13:29:48;662.00;;;343.80;;
23181;SDS011;11759;51.282;6.642;2023-06-22T13:32:15;655.33;;;344.50;;
23181;SDS011;11759;51.282;6.642;2023-06-22T13:34:43;668.83;;;363.80;;
23181;SDS011;11759;51.282;6.642;2023-06-22T13:37:10;683.05;;;392.55;;
23181;SDS011;11759;51.282;6.642;2023-06-22T13:39:36;665.08;;;377.15;;
23181;SDS011;11759;51.282;6.642;2023-06-22T13:42:03;676.53;;;388.73;;
23181;SDS011;11759;51.282;6.642;2023-06-22T13:44:30;670.70;;;389.10;;
23181;SDS011;11759;51.282;6.642;2023-06-22T13:46:57;659.58;;;383.48;;
23181;SDS011;11759;51.282;6.642;2023-06-22T13:49:24;681.10;;;405.33;;
23181;SDS011;11759;51.282;6.642;2023-06-22T13:51:51;654.92;;;381.75;;
23181;SDS011;11759;51.282;6.642;2023-06-22T13:54:17;660.70;;;378.75;;
23181;SDS011;11759;51.282;6.642;2023-06-22T13:56:47;650.70;;;372.60;;
23181;SDS011;11759;51.282;6.642;2023-06-22T13:59:14;657.33;;;370.63;;
23181;SDS011;11759;51.282;6.642;2023-06-22T14:01:41;650.00;;;357.70;;
23181;SDS011;11759;51.282;6.642;2023-06-22T14:04:10;656.30;;;359.77;;
23181;SDS011;11759;51.282;6.642;2023-06-22T14:06:37;657.83;;;356.52;;
23181;SDS011;11759;51.282;6.642;2023-06-22T14:09:04;640.03;;;334.88;;
23181;SDS011;11759;51.282;6.642;2023-06-22T14:11:31;646.05;;;331.25;;